createdAt,value
2022-09-07T00:00:39.027Z,101159.41
2022-09-07T00:03:05.899Z,101163.03
2022-09-07T00:05:32.886Z,101167.63
2022-09-07T00:08:00.102Z,101169.09
2022-09-07T00:10:26.820Z,101123.75
2022-09-07T00:12:53.640Z,101135.66
2022-09-07T00:15:20.377Z,101159.81
2022-09-07T00:17:46.772Z,101148.63
2022-09-07T00:20:13.227Z,101118.81
2022-09-07T00:22:39.783Z,101138.19
2022-09-07T00:25:06.647Z,101152.28
2022-09-07T00:27:33.117Z,101140.75
2022-09-07T00:30:00.830Z,101131.13
2022-09-07T00:32:27.305Z,101125.00
2022-09-07T00:34:53.870Z,101128.41
2022-09-07T00:37:20.372Z,101153.00
2022-09-07T00:39:47.064Z,101140.75
2022-09-07T00:42:13.491Z,101150.03
2022-09-07T00:44:42.841Z,101151.56
2022-09-07T00:47:38.786Z,101142.28
2022-09-07T00:50:16.287Z,101135.53
2022-09-07T00:52:45.896Z,101126.84
2022-09-07T00:55:16.049Z,101123.66
2022-09-07T00:57:47.771Z,101143.91
2022-09-07T01:00:14.428Z,101135.56
2022-09-07T01:02:42.554Z,101137.84
2022-09-07T01:05:31.846Z,101120.53
2022-09-07T01:07:58.664Z,101132.81
2022-09-07T01:10:26.552Z,101146.16
2022-09-07T01:12:53.074Z,101119.75
2022-09-07T01:15:22.574Z,101112.66
2022-09-07T01:18:01.807Z,101109.88
2022-09-07T01:20:40.042Z,101122.91
2022-09-07T01:23:56.114Z,101102.13
2022-09-07T01:26:47.361Z,101134.81
2022-09-07T01:29:23.660Z,101109.31
2022-09-07T01:32:16.836Z,101124.03
2022-09-07T01:34:50.757Z,101097.03
2022-09-07T01:37:40.595Z,101093.91
2022-09-07T01:40:13.538Z,101096.34
2022-09-07T01:42:56.151Z,101097.25
2022-09-07T01:45:28.833Z,101114.25
2022-09-07T01:48:04.056Z,101124.75
2022-09-07T01:50:55.406Z,101106.59
2022-09-07T01:53:28.081Z,101111.31
2022-09-07T01:55:57.417Z,101093.13
2022-09-07T01:58:50.747Z,101087.44
2022-09-07T02:01:24.268Z,101116.16
2022-09-07T02:04:17.339Z,101104.44
2022-09-07T02:06:57.346Z,101111.78
2022-09-07T02:09:46.016Z,101106.66
2022-09-07T02:12:46.668Z,101109.41
2022-09-07T02:15:37.139Z,101103.16
2022-09-07T02:18:07.458Z,101091.06
2022-09-07T02:20:39.282Z,101106.63
2022-09-07T02:23:17.270Z,101110.75
2022-09-07T02:25:48.789Z,101100.28
2022-09-07T02:28:20.649Z,101113.16
2022-09-07T02:30:47.219Z,101099.19
2022-09-07T02:33:13.864Z,101082.97
2022-09-07T02:35:40.871Z,101111.38
2022-09-07T02:38:08.059Z,101100.50
2022-09-07T02:40:34.851Z,101101.44
2022-09-07T02:43:03.355Z,101108.91
2022-09-07T02:45:46.444Z,101080.06
2022-09-07T02:48:49.893Z,101109.75
2022-09-07T02:51:33.889Z,101079.72
2022-09-07T02:54:18.580Z,101067.16
2022-09-07T02:56:59.005Z,101070.94
2022-09-07T02:59:56.321Z,101095.34
2022-09-07T03:02:53.731Z,101096.50
2022-09-07T03:05:23.176Z,101073.47
2022-09-07T03:08:01.356Z,101094.44
2022-09-07T03:10:28.826Z,101090.38
2022-09-07T03:12:55.308Z,101074.47
2022-09-07T03:15:25.289Z,101071.88
2022-09-07T03:17:52.530Z,101085.38
2022-09-07T03:20:20.065Z,101092.56
2022-09-07T03:22:48.239Z,101092.94
2022-09-07T03:25:15.416Z,101075.16
2022-09-07T03:27:41.979Z,101074.13
2022-09-07T03:30:10.538Z,101104.47
2022-09-07T03:32:38.531Z,101094.56
2022-09-07T03:35:06.960Z,101094.28
2022-09-07T03:37:36.299Z,101088.69
2022-09-07T03:40:04.763Z,101064.44
2022-09-07T03:42:31.279Z,101071.81
2022-09-07T03:44:57.735Z,101057.63
2022-09-07T03:47:24.292Z,101060.78
2022-09-07T03:49:51.832Z,101049.31
2022-09-07T03:52:18.581Z,101053.47
2022-09-07T03:54:45.075Z,101061.91
2022-09-07T03:57:11.851Z,101044.56
2022-09-07T03:59:38.321Z,101045.22
2022-09-07T04:02:05.125Z,101015.09
2022-09-07T04:04:31.550Z,101044.72
2022-09-07T04:06:58.018Z,101020.59
2022-09-07T04:09:27.206Z,101011.19
2022-09-07T04:11:53.716Z,101016.41
2022-09-07T04:14:20.350Z,101022.56
2022-09-07T04:16:47.036Z,101035.84
2022-09-07T04:19:13.488Z,101043.22
2022-09-07T04:21:40.011Z,101025.75
2022-09-07T04:24:06.824Z,101017.16
2022-09-07T04:26:34.249Z,101041.84
2022-09-07T04:29:01.386Z,101019.13
2022-09-07T04:31:28.020Z,101022.78
2022-09-07T04:33:55.536Z,101019.25
2022-09-07T04:36:24.817Z,101029.53
2022-09-07T04:39:00.096Z,101016.56
2022-09-07T04:41:28.873Z,101011.94
2022-09-07T04:43:57.963Z,101019.53
2022-09-07T04:46:30.102Z,101013.00
2022-09-07T04:49:03.105Z,101029.91
2022-09-07T04:51:31.729Z,101036.66
2022-09-07T04:53:59.729Z,100986.75
2022-09-07T04:56:26.557Z,101042.00
2022-09-07T04:58:52.992Z,101045.13
2022-09-07T05:01:22.494Z,101044.69
2022-09-07T05:03:49.456Z,101043.84
2022-09-07T05:06:17.902Z,101020.97
2022-09-07T05:08:46.815Z,101025.63
2022-09-07T05:11:14.714Z,101020.22
2022-09-07T05:14:18.131Z,101013.31
2022-09-07T05:24:18.366Z,100988.28
2022-09-07T05:34:29.570Z,100978.34
2022-09-07T05:36:57.453Z,101019.06
2022-09-07T05:40:05.246Z,100987.31
2022-09-07T05:42:32.315Z,100991.00
2022-09-07T05:44:59.234Z,101000.06
2022-09-07T05:47:28.676Z,100983.69
2022-09-07T05:57:52.155Z,100982.19
2022-09-07T06:00:21.407Z,101006.56
2022-09-07T06:02:48.907Z,100990.47
2022-09-07T06:05:15.521Z,101035.53
2022-09-07T06:07:42.036Z,101006.28
2022-09-07T06:12:55.709Z,101007.16
2022-09-07T06:15:22.294Z,101039.88
2022-09-07T06:17:48.930Z,101006.13
2022-09-07T06:20:15.521Z,101025.38
2022-09-07T06:22:42.118Z,101008.31
2022-09-07T06:25:14.630Z,101023.44
2022-09-07T06:27:41.272Z,101002.31
2022-09-07T06:30:08.379Z,101008.75
2022-09-07T06:32:44.345Z,101028.72
2022-09-07T06:35:11.908Z,100978.22
2022-09-07T06:37:52.519Z,101024.75
2022-09-07T06:40:22.972Z,101017.94
2022-09-07T06:42:58.205Z,100964.44
2022-09-07T06:45:24.961Z,100995.91
2022-09-07T06:47:54.127Z,101022.94
2022-09-07T06:50:20.666Z,100988.94
2022-09-07T06:59:12.196Z,100993.13
2022-09-07T07:01:38.833Z,100986.84
2022-09-07T07:04:53.521Z,100960.28
2022-09-07T07:07:40.765Z,100975.78
2022-09-07T07:10:07.757Z,100957.44
2022-09-07T07:12:52.767Z,100976.97
2022-09-07T07:15:19.836Z,100965.16
2022-09-07T07:17:51.942Z,100974.97
2022-09-07T07:20:22.867Z,100975.09
2022-09-07T07:22:52.847Z,100990.19
2022-09-07T07:25:19.807Z,100964.44
2022-09-07T07:27:47.062Z,100933.88
2022-09-07T08:04:23.008Z,100967.19
2022-09-07T08:10:29.148Z,100989.41
2022-09-07T08:13:03.106Z,100988.81
2022-09-07T08:15:31.187Z,100973.56
2022-09-07T08:21:55.373Z,100942.13
2022-09-07T08:24:35.396Z,100965.38
2022-09-07T08:27:02.528Z,100951.75
2022-09-07T08:38:20.923Z,100933.34
2022-09-07T10:52:17.055Z,100894.75
2022-09-07T10:55:26.633Z,100899.59
2022-09-07T10:59:01.428Z,100894.84
2022-09-07T11:01:28.271Z,100879.38
2022-09-07T11:04:23.066Z,100877.53
2022-09-07T11:11:13.570Z,100876.06
2022-09-07T11:20:34.415Z,100834.31
2022-09-07T11:23:23.057Z,100854.84
2022-09-07T11:26:27.183Z,100887.84
2022-09-07T11:29:34.708Z,100841.81
2022-09-07T11:32:17.129Z,100853.19
2022-09-07T11:35:04.969Z,100829.06
2022-09-07T11:37:55.677Z,100837.84
2022-09-07T11:40:39.765Z,100878.13
2022-09-07T11:43:38.389Z,100878.72
2022-09-07T12:13:48.487Z,100868.78
2022-09-07T12:45:45.199Z,100819.66
2022-09-07T14:01:43.925Z,100800.19
2022-09-07T14:08:02.855Z,100753.84
2022-09-07T14:10:29.538Z,100754.25
2022-09-07T14:13:20.744Z,100775.00
2022-09-07T14:15:52.507Z,100770.47
2022-09-07T14:18:29.030Z,100777.31
2022-09-07T14:20:56.413Z,100765.28
2022-09-07T14:23:39.447Z,100752.19
2022-09-07T14:26:19.203Z,100745.03
2022-09-07T14:28:49.629Z,100754.63
2022-09-07T14:31:20.550Z,100747.88
2022-09-07T14:33:58.745Z,100760.13
2022-09-07T14:36:46.482Z,100732.00
2022-09-07T14:39:15.818Z,100765.84
2022-09-07T14:41:45.522Z,100740.69
2022-09-07T14:44:46.291Z,100775.94
2022-09-07T14:47:30.593Z,100778.94
2022-09-07T14:50:06.643Z,100764.25
2022-09-07T14:52:42.429Z,100735.38
2022-09-07T14:55:43.108Z,100775.63
2022-09-07T14:58:15.865Z,100776.28
2022-09-07T15:04:01.144Z,100775.19
2022-09-07T15:09:35.707Z,100767.25
2022-09-07T15:12:37.803Z,100775.38
2022-09-07T15:15:26.165Z,100758.16
2022-09-07T15:18:04.630Z,100747.69
2022-09-07T15:20:41.078Z,100733.63
2022-09-07T15:23:16.361Z,100747.81
2022-09-07T15:29:18.628Z,100759.66
2022-09-07T15:31:59.470Z,100749.44
2022-09-07T15:34:31.507Z,100735.06
2022-09-07T15:37:00.886Z,100719.16
2022-09-07T15:40:09.519Z,100753.06
2022-09-07T15:46:26.623Z,100739.72
2022-09-07T15:49:12.414Z,100702.19
2022-09-07T15:52:08.491Z,100746.47
2022-09-07T15:54:56.688Z,100718.44
2022-09-07T16:50:47.656Z,100661.31
2022-09-07T16:54:27.500Z,100641.34
2022-09-07T16:56:30.365Z,100661.47
2022-09-07T17:11:56.105Z,100691.75
2022-09-07T17:14:22.849Z,100651.94
2022-09-07T17:16:53.124Z,100677.72
2022-09-07T17:19:36.821Z,100670.09
2022-09-07T17:22:04.210Z,100688.22
2022-09-07T17:24:32.727Z,100672.50
2022-09-07T17:29:44.146Z,100673.66
2022-09-07T17:32:24.795Z,100667.97
2022-09-07T21:34:39.041Z,100651.31
2022-09-07T21:37:08.449Z,100658.50
2022-09-07T21:39:35.494Z,100662.81
2022-09-07T21:42:05.668Z,100681.72
2022-09-07T21:44:32.304Z,100665.16
2022-09-07T21:46:58.957Z,100659.22
2022-09-07T21:49:25.662Z,100690.47
2022-09-07T21:51:52.127Z,100685.22
2022-09-07T21:54:18.699Z,100664.09
2022-09-07T21:56:46.805Z,100656.75
2022-09-07T21:59:14.025Z,100668.75
2022-09-07T22:01:41.034Z,100652.47
2022-09-07T22:04:07.755Z,100668.38
2022-09-07T22:06:34.757Z,100692.81
2022-09-07T22:09:05.356Z,100646.78
2022-09-07T22:11:32.253Z,100660.13
2022-09-07T22:14:04.549Z,100661.81
2022-09-07T22:16:33.235Z,100641.94
2022-09-07T22:19:00.435Z,100633.53
2022-09-07T22:21:28.661Z,100681.22
2022-09-07T22:24:06.267Z,100674.94
2022-09-07T22:26:37.817Z,100677.47
2022-09-07T22:29:06.436Z,100659.13
2022-09-07T22:31:35.247Z,100642.22
2022-09-07T22:34:03.684Z,100663.44
2022-09-07T22:36:33.057Z,100674.00
2022-09-07T22:39:02.274Z,100659.25
2022-09-07T22:41:31.315Z,100695.63
2022-09-07T22:43:58.688Z,100659.34
2022-09-07T22:46:28.461Z,100652.56
2022-09-07T22:48:57.064Z,100667.59
2022-09-07T22:51:25.306Z,100632.88
2022-09-07T22:53:52.507Z,100690.66
2022-09-07T22:56:22.042Z,100659.75
2022-09-07T22:58:58.000Z,100654.00
2022-09-07T23:01:32.072Z,100661.50
2022-09-07T23:04:00.019Z,100627.50
2022-09-07T23:06:30.883Z,100672.34
2022-09-07T23:08:59.457Z,100613.97
2022-09-07T23:11:27.016Z,100652.84
2022-09-07T23:13:55.652Z,100640.09
2022-09-07T23:16:23.243Z,100624.75
2022-09-07T23:18:52.884Z,100617.47
2022-09-07T23:21:19.614Z,100643.63
2022-09-07T23:23:52.259Z,100647.84
2022-09-07T23:26:20.007Z,100627.34
2022-09-07T23:28:50.310Z,100583.94
2022-09-07T23:31:17.061Z,100627.47
2022-09-07T23:33:43.561Z,100638.44
2022-09-07T23:36:10.153Z,100623.69
2022-09-07T23:38:36.632Z,100623.22
2022-09-07T23:41:03.070Z,100617.88
2022-09-07T23:43:31.540Z,100619.16
2022-09-07T23:45:59.793Z,100610.78
2022-09-07T23:48:26.821Z,100594.06
2022-09-07T23:50:54.179Z,100594.25
2022-09-07T23:53:22.429Z,100586.75
2022-09-07T23:55:50.503Z,100597.28
2022-09-07T23:58:19.778Z,100582.13
